Terminal Aerodrome Forecast
Issued by NWS Pocatello, ID

Home | Current Version | Previous Version | Text Only | Print | Product List | Glossary On
Versions: 1 2 3 4 5 6 7 8 9 10 11 12 13 14
000
FTUS45 KPIH 251100
TAFBYI
TAF
KBYI 251120Z 2512/2612 26026G36KT 1SM -SN BLSN OVC006
      TEMPO 2512/2516 1/2SM SN BLSN OVC002
     FM251800 27015G25KT 3SM -SN BKN008 OVC025
     FM252100 27013G23KT P6SM VCSH SCT010 OVC035
     FM260200 26011KT P6SM SCT040 BKN080=

USA.gov is the U.S. government's official web portal to all federal, state and local government web resources and services.